sensor_id;sensor_type;location;lat;lon;timestamp;temperature;humidity
11246;DHT22;59870;50.106;8.580;2024-02-04T00:02:02;14.20;94.90
11246;DHT22;59870;50.106;8.580;2024-02-04T00:04:32;14.20;94.90
11246;DHT22;59870;50.106;8.580;2024-02-04T00:07:01;14.20;94.80
11246;DHT22;59870;50.106;8.580;2024-02-04T00:09:29;14.20;94.90
11246;DHT22;59870;50.106;8.580;2024-02-04T00:12:00;14.20;94.90
11246;DHT22;59870;50.106;8.580;2024-02-04T00:14:34;14.30;94.90
11246;DHT22;59870;50.106;8.580;2024-02-04T00:17:03;14.00;94.80
11246;DHT22;59870;50.106;8.580;2024-02-04T00:19:31;14.50;95.00
11246;DHT22;59870;50.106;8.580;2024-02-04T00:22:00;14.30;94.90
11246;DHT22;59870;50.106;8.580;2024-02-04T00:24:28;14.40;95.00
11246;DHT22;59870;50.106;8.580;2024-02-04T00:26:57;14.40;94.90
11246;DHT22;59870;50.106;8.580;2024-02-04T00:29:31;14.40;94.90
11246;DHT22;59870;50.106;8.580;2024-02-04T00:31:59;14.60;95.00
11246;DHT22;59870;50.106;8.580;2024-02-04T00:34:28;14.30;94.90
11246;DHT22;59870;50.106;8.580;2024-02-04T00:37:34;14.30;95.00
11246;DHT22;59870;50.106;8.580;2024-02-04T00:40:02;14.30;94.80
11246;DHT22;59870;50.106;8.580;2024-02-04T00:42:32;14.10;94.90
11246;DHT22;59870;50.106;8.580;2024-02-04T00:45:00;14.40;94.90
11246;DHT22;59870;50.106;8.580;2024-02-04T00:47:29;14.50;95.00
11246;DHT22;59870;50.106;8.580;2024-02-04T00:49:57;14.50;95.00
11246;DHT22;59870;50.106;8.580;2024-02-04T00:52:26;14.30;95.00
11246;DHT22;59870;50.106;8.580;2024-02-04T00:54:54;14.40;95.00
11246;DHT22;59870;50.106;8.580;2024-02-04T00:57:23;14.10;94.80
11246;DHT22;59870;50.106;8.580;2024-02-04T00:59:53;14.40;94.90
11246;DHT22;59870;50.106;8.580;2024-02-04T01:02:21;14.60;95.00
11246;DHT22;59870;50.106;8.580;2024-02-04T01:04:49;14.30;94.90
11246;DHT22;59870;50.106;8.580;2024-02-04T01:07:19;14.20;95.00
11246;DHT22;59870;50.106;8.580;2024-02-04T01:09:47;14.30;95.10
11246;DHT22;59870;50.106;8.580;2024-02-04T01:12:16;14.50;95.10
11246;DHT22;59870;50.106;8.580;2024-02-04T01:14:45;14.50;95.20
11246;DHT22;59870;50.106;8.580;2024-02-04T01:17:13;14.00;94.80
11246;DHT22;59870;50.106;8.580;2024-02-04T01:19:41;14.30;95.00
11246;DHT22;59870;50.106;8.580;2024-02-04T01:22:09;14.50;95.20
11246;DHT22;59870;50.106;8.580;2024-02-04T01:24:38;14.40;95.20
11246;DHT22;59870;50.106;8.580;2024-02-04T01:27:06;14.20;95.50
11246;DHT22;59870;50.106;8.580;2024-02-04T01:29:36;14.40;95.60
11246;DHT22;59870;50.106;8.580;2024-02-04T01:32:34;14.20;95.60
11246;DHT22;59870;50.106;8.580;2024-02-04T01:35:02;14.20;95.80
11246;DHT22;59870;50.106;8.580;2024-02-04T01:37:30;14.20;95.60
11246;DHT22;59870;50.106;8.580;2024-02-04T01:39:58;14.30;95.30
11246;DHT22;59870;50.106;8.580;2024-02-04T01:42:27;14.20;95.30
11246;DHT22;59870;50.106;8.580;2024-02-04T01:44:56;14.20;95.50
11246;DHT22;59870;50.106;8.580;2024-02-04T01:47:25;14.00;95.50
11246;DHT22;59870;50.106;8.580;2024-02-04T01:49:53;14.20;95.70
11246;DHT22;59870;50.106;8.580;2024-02-04T01:52:22;14.30;95.80
11246;DHT22;59870;50.106;8.580;2024-02-04T01:54:50;13.90;95.80
11246;DHT22;59870;50.106;8.580;2024-02-04T01:57:19;14.40;96.20
11246;DHT22;59870;50.106;8.580;2024-02-04T01:59:48;14.40;96.10
11246;DHT22;59870;50.106;8.580;2024-02-04T02:02:19;13.90;95.80
11246;DHT22;59870;50.106;8.580;2024-02-04T02:04:47;14.20;95.90
11246;DHT22;59870;50.106;8.580;2024-02-04T02:07:18;14.10;96.00
11246;DHT22;59870;50.106;8.580;2024-02-04T02:09:49;14.10;96.30
11246;DHT22;59870;50.106;8.580;2024-02-04T02:12:22;14.00;96.40
11246;DHT22;59870;50.106;8.580;2024-02-04T02:15:15;14.30;96.70
11246;DHT22;59870;50.106;8.580;2024-02-04T02:17:51;14.00;96.50
11246;DHT22;59870;50.106;8.580;2024-02-04T02:20:27;14.00;96.70
11246;DHT22;59870;50.106;8.580;2024-02-04T02:25:36;14.00;96.80
11246;DHT22;59870;50.106;8.580;2024-02-04T02:28:06;14.20;97.00
11246;DHT22;59870;50.106;8.580;2024-02-04T02:30:34;14.20;97.00
11246;DHT22;59870;50.106;8.580;2024-02-04T02:33:04;14.00;96.90
11246;DHT22;59870;50.106;8.580;2024-02-04T02:35:37;14.10;97.20
11246;DHT22;59870;50.106;8.580;2024-02-04T02:40:58;13.90;97.10
11246;DHT22;59870;50.106;8.580;2024-02-04T02:43:28;13.60;97.30
11246;DHT22;59870;50.106;8.580;2024-02-04T02:45:57;13.90;97.50
11246;DHT22;59870;50.106;8.580;2024-02-04T02:48:26;14.10;97.70
11246;DHT22;59870;50.106;8.580;2024-02-04T02:50:55;13.90;97.70
11246;DHT22;59870;50.106;8.580;2024-02-04T02:53:23;13.90;97.70
11246;DHT22;59870;50.106;8.580;2024-02-04T02:55:51;13.90;97.80
11246;DHT22;59870;50.106;8.580;2024-02-04T02:58:22;13.50;97.70
11246;DHT22;59870;50.106;8.580;2024-02-04T03:00:50;13.50;97.90
11246;DHT22;59870;50.106;8.580;2024-02-04T03:03:18;13.80;98.00
11246;DHT22;59870;50.106;8.580;2024-02-04T03:05:47;13.90;98.20
11246;DHT22;59870;50.106;8.580;2024-02-04T03:08:15;13.70;98.30
11246;DHT22;59870;50.106;8.580;2024-02-04T03:10:44;13.90;98.60
11246;DHT22;59870;50.106;8.580;2024-02-04T03:13:13;13.60;98.50
11246;DHT22;59870;50.106;8.580;2024-02-04T03:15:41;13.60;98.50
11246;DHT22;59870;50.106;8.580;2024-02-04T03:18:13;13.80;98.80
11246;DHT22;59870;50.106;8.580;2024-02-04T03:20:41;13.60;98.70
11246;DHT22;59870;50.106;8.580;2024-02-04T03:23:10;13.60;99.00
11246;DHT22;59870;50.106;8.580;2024-02-04T03:25:38;13.70;99.10
11246;DHT22;59870;50.106;8.580;2024-02-04T03:28:06;13.70;99.20
11246;DHT22;59870;50.106;8.580;2024-02-04T03:30:35;13.50;99.20
11246;DHT22;59870;50.106;8.580;2024-02-04T03:33:03;13.50;99.10
11246;DHT22;59870;50.106;8.580;2024-02-04T03:35:32;13.50;99.20
11246;DHT22;59870;50.106;8.580;2024-02-04T03:38:04;13.30;99.10
11246;DHT22;59870;50.106;8.580;2024-02-04T03:40:32;13.70;99.30
11246;DHT22;59870;50.106;8.580;2024-02-04T04:18:33;13.40;99.50
11246;DHT22;59870;50.106;8.580;2024-02-04T04:21:02;13.40;99.40
11246;DHT22;59870;50.106;8.580;2024-02-04T04:23:30;13.60;99.50
11246;DHT22;59870;50.106;8.580;2024-02-04T04:26:24;13.40;99.40
11246;DHT22;59870;50.106;8.580;2024-02-04T04:28:52;13.40;99.70
11246;DHT22;59870;50.106;8.580;2024-02-04T04:31:21;13.40;99.60
11246;DHT22;59870;50.106;8.580;2024-02-04T04:33:50;13.30;99.50
11246;DHT22;59870;50.106;8.580;2024-02-04T04:36:22;13.40;99.60
11246;DHT22;59870;50.106;8.580;2024-02-04T04:38:51;13.10;99.40
11246;DHT22;59870;50.106;8.580;2024-02-04T04:41:19;13.40;99.40
11246;DHT22;59870;50.106;8.580;2024-02-04T04:43:47;13.40;99.30
11246;DHT22;59870;50.106;8.580;2024-02-04T04:46:15;13.60;99.30
11246;DHT22;59870;50.106;8.580;2024-02-04T04:48:44;13.60;99.40
11246;DHT22;59870;50.106;8.580;2024-02-04T04:51:12;13.10;99.20
11246;DHT22;59870;50.106;8.580;2024-02-04T04:53:42;13.50;99.40
11246;DHT22;59870;50.106;8.580;2024-02-04T04:56:10;13.60;99.50
11246;DHT22;59870;50.106;8.580;2024-02-04T04:58:38;13.60;99.30
11246;DHT22;59870;50.106;8.580;2024-02-04T05:01:06;13.60;99.30
11246;DHT22;59870;50.106;8.580;2024-02-04T05:03:35;13.40;99.20
11246;DHT22;59870;50.106;8.580;2024-02-04T05:06:04;13.40;99.10
11246;DHT22;59870;50.106;8.580;2024-02-04T05:08:32;13.40;99.00
11246;DHT22;59870;50.106;8.580;2024-02-04T05:11:00;13.60;99.00
11246;DHT22;59870;50.106;8.580;2024-02-04T05:13:29;13.50;99.00
11246;DHT22;59870;50.106;8.580;2024-02-04T05:16:01;13.50;98.90
11246;DHT22;59870;50.106;8.580;2024-02-04T05:18:30;13.20;98.80
11246;DHT22;59870;50.106;8.580;2024-02-04T05:21:01;13.50;98.90
11246;DHT22;59870;50.106;8.580;2024-02-04T05:23:30;13.50;99.00
11246;DHT22;59870;50.106;8.580;2024-02-04T05:26:02;13.20;98.60
11246;DHT22;59870;50.106;8.580;2024-02-04T05:28:30;13.50;98.90
11246;DHT22;59870;50.106;8.580;2024-02-04T05:31:01;13.50;99.00
11246;DHT22;59870;50.106;8.580;2024-02-04T05:33:30;13.50;99.00
11246;DHT22;59870;50.106;8.580;2024-02-04T05:35:59;13.50;98.80
11246;DHT22;59870;50.106;8.580;2024-02-04T05:38:31;13.50;98.80
11246;DHT22;59870;50.106;8.580;2024-02-04T05:40:59;13.50;98.80
11246;DHT22;59870;50.106;8.580;2024-02-04T05:43:27;13.40;98.70
11246;DHT22;59870;50.106;8.580;2024-02-04T05:45:56;13.60;98.60
11246;DHT22;59870;50.106;8.580;2024-02-04T05:48:26;13.60;98.50
11246;DHT22;59870;50.106;8.580;2024-02-04T05:50:55;13.40;98.40
11246;DHT22;59870;50.106;8.580;2024-02-04T05:53:23;13.80;98.40
11246;DHT22;59870;50.106;8.580;2024-02-04T05:55:51;13.60;98.40
11246;DHT22;59870;50.106;8.580;2024-02-04T05:58:20;13.60;98.60
11246;DHT22;59870;50.106;8.580;2024-02-04T06:00:48;13.80;98.60
11246;DHT22;59870;50.106;8.580;2024-02-04T06:03:16;13.80;98.50
11246;DHT22;59870;50.106;8.580;2024-02-04T06:05:44;13.80;98.60
11246;DHT22;59870;50.106;8.580;2024-02-04T06:08:13;13.60;98.60
11246;DHT22;59870;50.106;8.580;2024-02-04T06:10:42;13.70;98.60
11246;DHT22;59870;50.106;8.580;2024-02-04T06:13:10;13.60;98.50
11246;DHT22;59870;50.106;8.580;2024-02-04T06:15:38;13.70;98.60
11246;DHT22;59870;50.106;8.580;2024-02-04T06:18:06;13.60;98.40
11246;DHT22;59870;50.106;8.580;2024-02-04T06:20:34;13.60;98.50
11246;DHT22;59870;50.106;8.580;2024-02-04T06:23:02;13.50;98.30
11246;DHT22;59870;50.106;8.580;2024-02-04T06:25:30;13.50;98.30
11246;DHT22;59870;50.106;8.580;2024-02-04T06:27:59;13.70;98.50
11246;DHT22;59870;50.106;8.580;2024-02-04T06:30:27;13.50;98.40
11246;DHT22;59870;50.106;8.580;2024-02-04T06:32:55;13.20;98.40
11246;DHT22;59870;50.106;8.580;2024-02-04T06:35:24;13.50;98.40
11246;DHT22;59870;50.106;8.580;2024-02-04T06:37:54;13.50;98.40
11246;DHT22;59870;50.106;8.580;2024-02-04T06:40:26;13.50;98.30
11246;DHT22;59870;50.106;8.580;2024-02-04T06:42:56;13.50;98.40
11246;DHT22;59870;50.106;8.580;2024-02-04T06:45:24;13.50;98.60
11246;DHT22;59870;50.106;8.580;2024-02-04T06:47:52;13.50;98.40
11246;DHT22;59870;50.106;8.580;2024-02-04T06:50:20;13.70;98.60
11246;DHT22;59870;50.106;8.580;2024-02-04T06:52:55;13.50;98.60
11246;DHT22;59870;50.106;8.580;2024-02-04T06:55:57;13.60;98.60
11246;DHT22;59870;50.106;8.580;2024-02-04T06:58:32;13.50;98.70
11246;DHT22;59870;50.106;8.580;2024-02-04T07:01:12;13.50;98.50
11246;DHT22;59870;50.106;8.580;2024-02-04T07:03:48;13.70;98.50
11246;DHT22;59870;50.106;8.580;2024-02-04T07:06:29;13.50;98.60
11246;DHT22;59870;50.106;8.580;2024-02-04T07:10:26;13.30;98.50
11246;DHT22;59870;50.106;8.580;2024-02-04T07:13:07;13.60;98.60
11246;DHT22;59870;50.106;8.580;2024-02-04T07:16:16;13.50;98.50
11246;DHT22;59870;50.106;8.580;2024-02-04T07:19:40;13.70;98.70
11246;DHT22;59870;50.106;8.580;2024-02-04T07:23:53;13.90;98.70
11246;DHT22;59870;50.106;8.580;2024-02-04T07:27:20;13.50;98.40
11246;DHT22;59870;50.106;8.580;2024-02-04T07:39:36;13.60;98.40
11246;DHT22;59870;50.106;8.580;2024-02-04T07:51:03;13.40;98.20
11246;DHT22;59870;50.106;8.580;2024-02-04T07:54:11;13.60;98.10
11246;DHT22;59870;50.106;8.580;2024-02-04T07:56:58;13.60;98.40
11246;DHT22;59870;50.106;8.580;2024-02-04T07:59:48;13.40;98.30
11246;DHT22;59870;50.106;8.580;2024-02-04T08:03:11;13.40;98.20
11246;DHT22;59870;50.106;8.580;2024-02-04T08:05:58;13.70;98.20
11246;DHT22;59870;50.106;8.580;2024-02-04T08:09:08;13.70;98.30
11246;DHT22;59870;50.106;8.580;2024-02-04T08:12:00;13.80;98.40
11246;DHT22;59870;50.106;8.580;2024-02-04T08:15:40;13.80;98.50
11246;DHT22;59870;50.106;8.580;2024-02-04T08:18:15;13.80;98.40
11246;DHT22;59870;50.106;8.580;2024-02-04T08:20:55;13.50;98.20
11246;DHT22;59870;50.106;8.580;2024-02-04T08:23:34;13.50;98.00
11246;DHT22;59870;50.106;8.580;2024-02-04T08:26:31;13.80;98.20
11246;DHT22;59870;50.106;8.580;2024-02-04T08:29:03;13.90;98.20
11246;DHT22;59870;50.106;8.580;2024-02-04T08:31:32;14.00;98.30
11246;DHT22;59870;50.106;8.580;2024-02-04T08:34:08;14.10;98.30
11246;DHT22;59870;50.106;8.580;2024-02-04T08:37:13;13.60;98.10
11246;DHT22;59870;50.106;8.580;2024-02-04T08:39:43;13.90;98.20
11246;DHT22;59870;50.106;8.580;2024-02-04T08:42:31;14.10;98.30
11246;DHT22;59870;50.106;8.580;2024-02-04T08:48:00;14.00;98.60
11246;DHT22;59870;50.106;8.580;2024-02-04T08:50:29;14.00;98.30
11246;DHT22;59870;50.106;8.580;2024-02-04T08:52:58;14.00;98.10
11246;DHT22;59870;50.106;8.580;2024-02-04T08:55:26;14.10;98.10
11246;DHT22;59870;50.106;8.580;2024-02-04T08:57:58;14.10;98.00
11246;DHT22;59870;50.106;8.580;2024-02-04T09:00:30;13.90;97.90
11246;DHT22;59870;50.106;8.580;2024-02-04T09:07:06;14.20;98.00
11246;DHT22;59870;50.106;8.580;2024-02-04T09:09:43;14.20;98.30
11246;DHT22;59870;50.106;8.580;2024-02-04T09:12:50;14.70;98.30
11246;DHT22;59870;50.106;8.580;2024-02-04T09:15:22;14.40;97.80
11246;DHT22;59870;50.106;8.580;2024-02-04T09:18:14;14.40;97.70
11246;DHT22;59870;50.106;8.580;2024-02-04T09:20:47;14.60;97.80
11246;DHT22;59870;50.106;8.580;2024-02-04T09:23:46;14.40;97.70
11246;DHT22;59870;50.106;8.580;2024-02-04T09:26:15;14.40;97.70
11246;DHT22;59870;50.106;8.580;2024-02-04T09:32:50;14.20;97.60
11246;DHT22;59870;50.106;8.580;2024-02-04T09:35:20;14.70;97.70
11246;DHT22;59870;50.106;8.580;2024-02-04T09:37:51;14.50;97.70
11246;DHT22;59870;50.106;8.580;2024-02-04T09:40:21;14.30;97.70
11246;DHT22;59870;50.106;8.580;2024-02-04T09:43:39;14.50;98.00
11246;DHT22;59870;50.106;8.580;2024-02-04T09:47:59;14.60;98.00
11246;DHT22;59870;50.106;8.580;2024-02-04T11:43:23;14.90;96.70
11246;DHT22;59870;50.106;8.580;2024-02-04T16:01:29;15.70;95.50
11246;DHT22;59870;50.106;8.580;2024-02-04T16:03:59;15.70;95.50
11246;DHT22;59870;50.106;8.580;2024-02-04T17:59:23;15.30;95.70
11246;DHT22;59870;50.106;8.580;2024-02-04T18:34:17;15.10;95.60
11246;DHT22;59870;50.106;8.580;2024-02-04T19:30:15;15.00;95.20
11246;DHT22;59870;50.106;8.580;2024-02-04T19:32:44;14.90;95.00
11246;DHT22;59870;50.106;8.580;2024-02-04T19:35:15;15.20;95.20
11246;DHT22;59870;50.106;8.580;2024-02-04T19:37:47;15.20;95.20
